Time;durP1;ratioP1;P1;durP2;ratioP2;P2;SDS_P1;SDS_P2;PMS_P1;PMS_P2;Temp;Humidity;BMP_temperature;BMP_pressure;BME280_temperature;BME280_humidity;BME280_pressure;Samples;Min_cycle;Max_cycle;Signal;HPM_P1;HPM_P2
2022/01/05 00:00:00;;;;;;;;;2.75;2.75;;;;;6.10;64.17;100101.28;5016717;28;45347;-78
2022/01/05 00:02:25;;;;;;;;;2.00;2.00;;;;;5.94;63.73;100085.34;5017264;28;45314;-76
2022/01/05 00:04:51;;;;;;;;;3.00;2.00;;;;;5.97;63.70;100105.44;5016570;28;45528;-73
2022/01/05 00:07:16;;;;;;;;;0.00;0.00;;;;;5.92;63.78;100131.50;5016782;28;45428;-80
2022/01/05 00:09:43;;;;;;;;;3.00;1.00;;;;;5.77;64.10;100101.56;5016867;28;45475;-78
2022/01/05 00:12:09;;;;;;;;;1.75;1.00;;;;;5.75;64.15;100112.00;5016852;28;45271;-77
2022/01/05 00:14:35;;;;;;;;;1.25;1.00;;;;;5.71;64.20;100115.44;5016766;28;45221;-76
2022/01/05 00:17:00;;;;;;;;;2.25;2.00;;;;;5.59;64.39;100110.00;5016667;28;46416;-79
2022/01/05 00:19:25;;;;;;;;;3.00;3.00;;;;;5.66;64.34;100128.41;5016848;28;45274;-75
2022/01/05 00:21:51;;;;;;;;;1.25;1.25;;;;;5.60;64.27;100122.22;5016902;28;45240;-73
2022/01/05 00:24:16;;;;;;;;;5.25;2.50;;;;;5.43;63.97;100096.66;5019172;28;45217;-73
2022/01/05 00:26:42;;;;;;;;;4.50;4.50;;;;;5.46;63.84;100103.66;5020191;28;46313;-78
2022/01/05 00:29:08;;;;;;;;;5.00;4.00;;;;;5.44;63.26;100106.25;5019472;28;45462;-77
2022/01/05 00:31:33;;;;;;;;;2.75;2.75;;;;;5.46;62.80;100123.69;5019904;28;45435;-75
2022/01/05 00:33:58;;;;;;;;;2.25;2.00;;;;;5.41;62.55;100118.41;5020349;28;45389;-79
2022/01/05 00:36:24;;;;;;;;;3.50;3.50;;;;;5.48;62.52;100128.06;5019969;28;45586;-73
2022/01/05 00:38:49;;;;;;;;;4.00;1.25;;;;;5.48;62.67;100132.41;5001725;28;46129;-77
2022/01/05 00:41:15;;;;;;;;;3.00;3.00;;;;;5.39;62.98;100127.91;5019918;28;45305;-77
2022/01/05 00:43:41;;;;;;;;;2.00;2.00;;;;;5.40;62.43;100121.84;5019942;28;45403;-79
2022/01/05 00:46:07;;;;;;;;;9.75;5.00;;;;;5.37;62.83;100121.78;5019167;28;46534;-77
2022/01/05 00:48:34;;;;;;;;;5.50;4.75;;;;;5.43;62.98;100143.69;5019886;28;45321;-77
2022/01/05 00:51:03;;;;;;;;;4.50;4.00;;;;;5.29;63.50;100124.25;5019540;28;45318;-76
2022/01/05 00:53:29;;;;;;;;;4.75;4.75;;;;;5.35;63.01;100141.78;5019843;28;45435;-80
2022/01/05 00:55:55;;;;;;;;;3.00;3.00;;;;;5.27;62.35;100133.78;5019684;28;46107;-78
2022/01/05 00:58:20;;;;;;;;;3.50;2.00;;;;;5.31;62.82;100153.03;5019579;28;45341;-80
2022/01/05 01:00:46;;;;;;;;;4.75;2.00;;;;;5.29;63.09;100150.34;5018507;28;45233;-79
2022/01/05 01:03:12;;;;;;;;;2.75;2.00;;;;;5.30;62.99;100161.69;5019014;28;45493;-70
2022/01/05 01:05:37;;;;;;;;;2.25;1.75;;;;;5.13;62.49;100130.94;5017954;28;45468;-75
2022/01/05 01:08:06;;;;;;;;;3.00;3.00;;;;;5.28;63.30;100163.41;5017734;28;45425;-76
2022/01/05 01:10:32;;;;;;;;;3.00;2.50;;;;;5.28;63.15;100174.72;5019662;28;45310;-78
2022/01/05 01:12:57;;;;;;;;;4.75;2.75;;;;;5.25;63.72;100177.28;5019088;28;45300;-80
2022/01/05 01:15:23;;;;;;;;;2.25;1.00;;;;;5.17;63.70;100168.41;5018982;28;46464;-78
2022/01/05 01:17:48;;;;;;;;;2.50;2.00;;;;;5.14;63.31;100165.75;5019033;28;45316;-81
2022/01/05 01:20:14;;;;;;;;;3.50;2.50;;;;;5.19;63.99;100184.97;5019563;28;45522;-74
2022/01/05 01:22:40;;;;;;;;;5.75;3.25;;;;;5.08;63.19;100166.50;5019957;28;45430;-73
2022/01/05 01:25:06;;;;;;;;;1.50;1.50;;;;;5.15;63.82;100197.09;5001444;28;46254;-73
2022/01/05 01:27:32;;;;;;;;;2.75;1.00;;;;;5.03;63.60;100194.25;5001374;28;45340;-73
2022/01/05 01:29:58;;;;;;;;;0.75;0.50;;;;;5.08;63.41;100202.16;5019261;28;45443;-72
2022/01/05 01:32:26;;;;;;;;;2.25;1.00;;;;;5.13;63.75;100216.22;5019359;28;45301;-73
2022/01/05 01:34:52;;;;;;;;;2.75;1.00;;;;;5.12;63.25;100211.84;5001442;28;46709;-73
2022/01/05 01:37:17;;;;;;;;;3.25;2.00;;;;;5.12;63.15;100222.28;5019128;28;45367;-73
2022/01/05 01:39:43;;;;;;;;;4.75;2.00;;;;;5.00;63.22;100202.00;5019312;28;45501;-73
2022/01/05 01:42:09;;;;;;;;;2.50;1.00;;;;;4.84;63.66;100179.06;5019285;28;45364;-72
2022/01/05 01:44:36;;;;;;;;;2.25;0.50;;;;;4.95;63.83;100211.47;5019973;28;45974;-74
2022/01/05 01:47:02;;;;;;;;;4.00;1.00;;;;;5.09;63.97;100230.03;5001104;28;45444;-74
2022/01/05 01:49:27;;;;;;;;;3.00;3.00;;;;;5.03;64.03;100222.09;5001463;28;45413;-74
2022/01/05 01:51:54;;;;;;;;;1.00;1.00;;;;;4.96;63.70;100223.69;5001087;28;45415;-71
2022/01/05 01:54:20;;;;;;;;;5.00;1.00;;;;;5.01;63.52;100223.75;4999630;28;47752;-70
2022/01/05 01:56:47;;;;;;;;;2.00;2.00;;;;;5.08;64.07;100247.41;5019120;28;45554;-71
2022/01/05 01:59:13;;;;;;;;;6.25;2.50;;;;;5.07;64.63;100248.28;5000991;28;45249;-70
2022/01/05 02:01:41;;;;;;;;;1.50;1.50;;;;;5.08;64.11;100252.66;5018703;28;45266;-71
2022/01/05 02:04:07;;;;;;;;;1.00;1.00;;;;;4.98;63.67;100239.38;5000739;28;46940;-81
2022/01/05 02:06:32;;;;;;;;;1.75;1.75;;;;;5.00;63.80;100250.72;5018562;28;45257;-78
2022/01/05 02:09:03;;;;;;;;;3.25;3.25;;;;;5.04;63.81;100261.28;5017726;28;45436;-79
2022/01/05 02:11:31;;;;;;;;;4.25;1.50;;;;;4.98;63.93;100268.97;5016820;28;45510;-80
2022/01/05 02:13:56;;;;;;;;;2.00;2.00;;;;;5.02;64.16;100280.34;5018171;28;46888;-78
2022/01/05 02:16:29;;;;;;;;;1.00;1.00;;;;;4.86;63.30;100253.03;5017944;28;45451;-82
2022/01/05 02:18:57;;;;;;;;;5.00;1.00;;;;;4.89;63.33;100260.03;5018358;28;45296;-75
2022/01/05 02:21:23;;;;;;;;;1.00;1.00;;;;;4.94;63.11;100272.34;5018614;28;45268;-78
2022/01/05 02:23:48;;;;;;;;;2.00;2.00;;;;;4.85;63.04;100261.72;5018443;28;45421;-79
2022/01/05 02:26:14;;;;;;;;;2.25;1.50;;;;;4.79;63.36;100257.22;5018111;28;45329;-77
2022/01/05 02:28:40;;;;;;;;;3.00;3.00;;;;;4.97;63.51;100285.47;5018204;28;45205;-78
2022/01/05 02:31:06;;;;;;;;;5.00;2.00;;;;;4.96;63.09;100280.22;5000500;28;45670;-80
2022/01/05 02:33:32;;;;;;;;;4.00;0.00;;;;;4.86;62.75;100268.69;5018226;28;45248;-81
2022/01/05 02:35:57;;;;;;;;;5.50;3.25;;;;;4.94;62.16;100274.97;5017927;28;45279;-78
2022/01/05 02:38:23;;;;;;;;;1.25;1.00;;;;;4.97;62.24;100280.25;5010571;28;45402;-78
2022/01/05 02:40:50;;;;;;;;;1.75;1.75;;;;;4.91;62.82;100277.50;4998257;28;45344;-76
2022/01/05 02:43:16;;;;;;;;;1.50;1.50;;;;;4.84;62.42;100267.78;4997982;28;45408;-76
2022/01/05 02:45:42;;;;;;;;;3.25;1.50;;;;;4.81;62.24;100260.75;5004767;28;45475;-78
2022/01/05 02:48:07;;;;;;;;;1.00;1.00;;;;;4.94;62.54;100285.41;5017918;28;45231;-78
2022/01/05 02:50:34;;;;;;;;;3.25;1.75;;;;;4.93;62.18;100291.44;5018133;28;45990;-80
2022/01/05 02:52:59;;;;;;;;;7.50;1.75;;;;;4.92;62.08;100283.59;5017929;28;45542;-78
2022/01/05 02:55:25;;;;;;;;;6.50;1.25;;;;;4.87;62.49;100286.09;5017938;28;45432;-75
2022/01/05 02:57:50;;;;;;;;;2.00;1.50;;;;;4.91;62.05;100295.75;5018116;28;45731;-80
2022/01/05 03:00:17;;;;;;;;;5.25;4.50;;;;;4.93;62.43;100295.78;5018209;28;45409;-79
2022/01/05 03:02:43;;;;;;;;;4.50;2.00;;;;;4.94;62.20;100293.25;5017846;28;46417;-76
2022/01/05 03:05:09;;;;;;;;;1.75;1.25;;;;;4.93;62.35;100307.09;5018782;28;45369;-79
2022/01/05 03:07:39;;;;;;;;;4.25;0.50;;;;;4.93;62.46;100311.44;5018827;28;45340;-75
2022/01/05 03:10:06;;;;;;;;;0.75;0.75;;;;;4.92;61.99;100307.97;5019476;28;45230;-76
2022/01/05 03:12:32;;;;;;;;;6.50;2.00;;;;;4.75;61.89;100291.06;5018266;28;47272;-77
2022/01/05 03:14:57;;;;;;;;;1.50;1.50;;;;;4.82;62.20;100312.09;5018304;28;45138;-78
2022/01/05 03:17:23;;;;;;;;;4.00;2.25;;;;;4.80;62.59;100312.91;5018151;28;45321;-75
2022/01/05 03:19:48;;;;;;;;;3.25;3.25;;;;;4.83;62.38;100328.63;5018243;28;45519;-77
2022/01/05 03:22:13;;;;;;;;;4.75;2.50;;;;;4.67;62.45;100300.41;5017830;28;46501;-79
2022/01/05 03:24:39;;;;;;;;;4.50;4.50;;;;;4.79;62.88;100329.41;5017951;28;45927;-77
2022/01/05 03:27:05;;;;;;;;;2.50;1.75;;;;;4.78;62.50;100328.53;5017339;28;45425;-78
2022/01/05 03:29:30;;;;;;;;;1.75;0.75;;;;;4.65;62.58;100315.13;5017579;28;45415;-79
2022/01/05 03:31:56;;;;;;;;;1.00;1.00;;;;;4.75;62.71;100330.19;5017267;28;45452;-80
2022/01/05 03:34:21;;;;;;;;;5.75;1.75;;;;;4.76;62.54;100340.66;5017207;28;45435;-79
2022/01/05 03:36:47;;;;;;;;;5.00;3.00;;;;;4.75;62.19;100340.63;5017430;28;45455;-76
2022/01/05 03:39:13;;;;;;;;;3.25;3.25;;;;;4.76;62.40;100352.81;5017630;28;45335;-76
2022/01/05 03:41:39;;;;;;;;;2.00;1.00;;;;;4.76;62.70;100352.81;5017218;28;46459;-79
2022/01/05 03:44:05;;;;;;;;;3.00;1.25;;;;;4.76;62.16;100358.94;5017337;28;45280;-76
2022/01/05 03:46:31;;;;;;;;;2.00;1.00;;;;;4.67;62.52;100340.44;5016667;28;45224;-80
2022/01/05 03:48:56;;;;;;;;;2.00;2.00;;;;;4.61;62.73;100353.31;5017641;28;45207;-79
2022/01/05 03:51:22;;;;;;;;;0.75;0.75;;;;;4.69;62.77;100371.78;5016849;28;46499;-80
2022/01/05 03:53:47;;;;;;;;;4.25;1.00;;;;;4.70;62.83;100379.63;5017041;28;45217;-80
2022/01/05 03:56:13;;;;;;;;;1.25;1.25;;;;;4.69;62.76;100382.22;5017099;28;45366;-79
2022/01/05 03:58:38;;;;;;;;;3.50;2.50;;;;;4.62;63.03;100368.13;5018976;28;45356;-79
2022/01/05 04:01:04;;;;;;;;;2.50;2.50;;;;;4.67;62.75;100395.22;5020115;28;45981;-78
2022/01/05 04:03:30;;;;;;;;;2.00;2.00;;;;;4.54;63.11;100359.22;5020305;28;45427;-80
2022/01/05 04:05:55;;;;;;;;;1.00;1.00;;;;;4.64;62.92;100375.97;5020394;28;45419;-80
2022/01/05 04:08:20;;;;;;;;;0.00;0.00;;;;;4.68;63.28;100391.75;5020759;28;45472;-77
2022/01/05 04:10:46;;;;;;;;;1.75;1.75;;;;;4.60;63.07;100374.16;5020240;28;46257;-79
2022/01/05 04:13:12;;;;;;;;;2.50;1.50;;;;;4.72;62.69;100392.72;5020296;28;45324;-79
2022/01/05 04:15:38;;;;;;;;;1.00;1.00;;;;;4.61;62.88;100373.31;5020573;28;45261;-80
2022/01/05 04:18:03;;;;;;;;;1.00;1.00;;;;;4.63;62.92;100382.03;5020564;28;45597;-79
2022/01/05 04:20:29;;;;;;;;;3.50;2.00;;;;;4.69;62.54;100390.03;5019749;28;46439;-77
2022/01/05 04:22:54;;;;;;;;;7.50;1.00;;;;;4.68;63.01;100393.50;5020051;28;45218;-81
2022/01/05 04:25:20;;;;;;;;;1.75;1.00;;;;;4.71;62.86;100401.38;5020335;28;45386;-80
2022/01/05 04:27:45;;;;;;;;;2.50;1.50;;;;;4.71;62.74;100399.66;5020619;28;45431;-80
2022/01/05 04:30:12;;;;;;;;;3.50;2.00;;;;;4.53;62.89;100368.75;5020039;28;45499;-79
2022/01/05 04:32:37;;;;;;;;;2.00;0.25;;;;;4.71;62.84;100396.16;5019493;28;45320;-80
2022/01/05 04:35:03;;;;;;;;;2.50;1.00;;;;;4.70;62.85;100402.22;5019908;28;45309;-80
2022/01/05 04:37:31;;;;;;;;;3.50;2.00;;;;;4.70;62.94;100402.22;5020074;28;45495;-79
2022/01/05 04:39:57;;;;;;;;;2.00;1.50;;;;;4.71;63.33;100398.78;5019960;28;46491;-79
2022/01/05 04:42:24;;;;;;;;;2.00;1.00;;;;;4.70;63.46;100397.03;5020033;28;45345;-79
2022/01/05 04:44:50;;;;;;;;;1.00;1.00;;;;;4.67;63.64;100396.94;5020145;28;45250;-79
2022/01/05 04:47:15;;;;;;;;;2.00;0.00;;;;;4.63;63.18;100395.09;5020103;28;45208;-79
2022/01/05 04:49:40;;;;;;;;;4.75;1.25;;;;;4.73;63.34;100424.06;5019452;28;46171;-76
2022/01/05 04:52:06;;;;;;;;;3.75;1.75;;;;;4.71;63.48;100423.13;5019864;28;45272;-79
2022/01/05 04:54:32;;;;;;;;;0.75;0.75;;;;;4.66;63.69;100413.44;5019825;28;45296;-76
2022/01/05 04:56:57;;;;;;;;;5.00;3.00;;;;;4.66;63.76;100416.06;5019876;28;45484;-77
2022/01/05 04:59:22;;;;;;;;;3.00;3.00;;;;;4.67;63.48;100421.31;5019678;28;45474;-77
2022/01/05 05:01:48;;;;;;;;;0.00;0.00;;;;;4.64;63.68;100422.94;5019235;28;45261;-78
2022/01/05 05:04:13;;;;;;;;;1.75;1.75;;;;;4.65;63.84;100429.91;5019612;28;45356;-78
2022/01/05 05:06:38;;;;;;;;;1.00;0.50;;;;;4.67;63.72;100433.47;5020205;28;45490;-79
2022/01/05 05:09:04;;;;;;;;;1.75;0.25;;;;;4.52;64.42;100413.06;5019006;28;47324;-78
2022/01/05 05:11:29;;;;;;;;;1.25;1.25;;;;;4.55;63.82;100440.09;5019434;28;45338;-79
2022/01/05 05:13:55;;;;;;;;;1.25;1.25;;;;;4.64;63.70;100452.50;5019047;28;45696;-78
2022/01/05 05:16:20;;;;;;;;;1.00;1.00;;;;;4.52;64.14;100437.44;5019831;28;45315;-75
2022/01/05 05:18:46;;;;;;;;;3.00;1.00;;;;;4.49;64.22;100433.88;5019254;28;46940;-79
2022/01/05 05:21:11;;;;;;;;;1.00;1.00;;;;;4.53;64.30;100451.34;5018275;28;45468;-78
2022/01/05 05:23:37;;;;;;;;;4.00;1.00;;;;;4.60;64.02;100473.28;5018979;28;45284;-76
2022/01/05 05:26:02;;;;;;;;;4.00;2.25;;;;;4.52;64.37;100460.03;5019576;28;45371;-80
2022/01/05 05:28:28;;;;;;;;;1.50;1.25;;;;;4.47;64.59;100461.63;5019193;28;45518;-79
2022/01/05 05:30:53;;;;;;;;;4.25;0.50;;;;;4.57;64.46;100472.38;5019210;28;45348;-78
2022/01/05 05:33:18;;;;;;;;;1.25;1.00;;;;;4.60;64.21;100470.66;5019102;28;45562;-79
2022/01/05 05:35:44;;;;;;;;;2.00;1.00;;;;;4.53;64.40;100472.22;5018884;28;45515;-78
2022/01/05 05:38:11;;;;;;;;;2.00;1.00;;;;;4.52;64.17;100460.91;5019056;28;46418;-80
2022/01/05 05:40:37;;;;;;;;;1.25;0.50;;;;;4.67;63.64;100486.53;5019156;28;45302;-80
2022/01/05 05:43:03;;;;;;;;;4.25;1.00;;;;;4.63;63.83;100487.28;5019022;28;45277;-78
2022/01/05 05:45:28;;;;;;;;;0.50;0.50;;;;;4.63;63.92;100489.00;5019385;28;45301;-79
2022/01/05 05:47:54;;;;;;;;;3.50;3.50;;;;;4.58;64.00;100488.91;5018924;28;46530;-80
2022/01/05 05:50:19;;;;;;;;;1.25;1.00;;;;;4.56;64.13;100486.25;5000658;28;45497;-77
2022/01/05 05:52:45;;;;;;;;;4.75;0.25;;;;;4.61;64.20;100488.09;5001192;28;45378;-78
2022/01/05 05:55:10;;;;;;;;;2.00;2.00;;;;;4.68;63.97;100508.28;5019116;28;45284;-79
2022/01/05 05:57:36;;;;;;;;;1.00;1.00;;;;;4.56;64.38;100480.16;5018539;28;45319;-79
2022/01/05 06:00:03;;;;;;;;;2.00;1.00;;;;;4.44;64.58;100462.41;5018639;28;45396;-77
2022/01/05 06:02:29;;;;;;;;;5.00;1.50;;;;;4.53;64.54;100480.94;5018766;28;45375;-77
2022/01/05 06:04:54;;;;;;;;;4.00;1.00;;;;;4.57;64.40;100488.00;5018756;28;45329;-78
2022/01/05 06:07:19;;;;;;;;;2.00;0.75;;;;;4.64;64.30;100507.31;5018514;28;45411;-79
2022/01/05 06:09:45;;;;;;;;;5.25;1.00;;;;;4.55;64.14;100494.88;5018375;28;45205;-80
2022/01/05 06:12:10;;;;;;;;;1.00;1.00;;;;;4.60;64.36;100505.47;5018505;28;45258;-79
2022/01/05 06:14:35;;;;;;;;;0.50;0.50;;;;;4.55;64.57;100500.09;5020199;28;45193;-79
2022/01/05 06:17:01;;;;;;;;;1.00;1.00;;;;;4.53;64.61;100495.69;5019030;28;46530;-76
2022/01/05 06:19:26;;;;;;;;;3.75;2.50;;;;;4.55;64.73;100499.22;5000603;28;45260;-76
2022/01/05 06:21:52;;;;;;;;;1.00;1.00;;;;;4.62;64.43;100516.81;5017289;28;45256;-79
2022/01/05 06:24:18;;;;;;;;;1.25;1.00;;;;;4.71;64.93;100534.47;5018229;28;45554;-76
2022/01/05 06:26:45;;;;;;;;;1.00;1.00;;;;;4.72;64.29;100531.00;5016945;28;46193;-77
2022/01/05 06:29:12;;;;;;;;;0.50;0.50;;;;;4.59;64.86;100516.75;5017812;28;45482;-75
2022/01/05 06:31:38;;;;;;;;;1.00;1.00;;;;;4.66;64.62;100525.63;5018590;28;45483;-77
2022/01/05 06:34:04;;;;;;;;;1.75;1.00;;;;;4.60;65.14;100521.13;5000274;28;45446;-75
2022/01/05 06:36:29;;;;;;;;;2.00;2.00;;;;;4.54;65.05;100514.00;5006392;28;46411;-77
2022/01/05 06:38:54;;;;;;;;;2.00;2.00;;;;;4.66;64.90;100530.84;5017779;28;45241;-77
2022/01/05 06:41:20;;;;;;;;;1.00;1.00;;;;;4.55;64.67;100517.47;5018346;28;45158;-74
2022/01/05 06:43:45;;;;;;;;;4.00;4.00;;;;;4.52;64.98;100526.13;5018325;28;45442;-75
2022/01/05 06:46:11;;;;;;;;;1.25;1.25;;;;;4.68;65.28;100540.47;5018152;28;46576;-77
2022/01/05 06:48:36;;;;;;;;;2.75;2.00;;;;;4.78;64.66;100547.72;5017921;28;45264;-79
2022/01/05 06:51:01;;;;;;;;;1.75;1.50;;;;;4.61;64.48;100519.38;5017286;28;45320;-71
2022/01/05 06:53:27;;;;;;;;;2.50;2.50;;;;;4.68;65.05;100532.66;5017550;28;45222;-79
2022/01/05 06:55:53;;;;;;;;;0.50;0.50;;;;;4.66;65.38;100543.91;5017470;28;47420;-79
2022/01/05 06:58:19;;;;;;;;;4.75;2.50;;;;;4.72;65.06;100568.41;5017410;28;45296;-80
2022/01/05 07:00:44;;;;;;;;;1.00;1.00;;;;;4.70;65.03;100569.22;5016908;28;45540;-77
2022/01/05 07:03:10;;;;;;;;;2.00;2.00;;;;;4.51;65.37;100541.72;5017075;28;45490;-79
2022/01/05 07:05:35;;;;;;;;;3.75;3.00;;;;;4.54;66.14;100553.13;5016786;28;47000;-71
2022/01/05 07:08:01;;;;;;;;;1.25;1.00;;;;;4.52;66.03;100557.41;5017225;28;45320;-73
2022/01/05 07:10:27;;;;;;;;;1.00;0.00;;;;;4.43;66.15;100546.72;5016409;28;45481;-77
2022/01/05 07:12:52;;;;;;;;;4.50;4.25;;;;;4.37;66.10;100541.31;5016291;28;45477;-75
2022/01/05 07:15:18;;;;;;;;;2.75;1.00;;;;;4.50;66.27;100576.47;5016633;28;46409;-79
2022/01/05 07:17:43;;;;;;;;;1.00;1.00;;;;;4.43;66.45;100571.91;5016485;28;45377;-77
2022/01/05 07:20:09;;;;;;;;;1.25;1.25;;;;;4.33;66.47;100562.94;5016782;28;45410;-78
2022/01/05 07:22:36;;;;;;;;;5.50;0.75;;;;;4.37;66.34;100585.66;5016867;28;45316;-74
2022/01/05 07:25:03;;;;;;;;;1.50;0.75;;;;;4.37;66.08;100601.28;5016847;28;46105;-79
2022/01/05 07:27:29;;;;;;;;;1.00;1.00;;;;;4.24;66.83;100583.53;5016377;28;45714;-72
2022/01/05 07:29:54;;;;;;;;;2.00;2.00;;;;;4.35;66.92;100612.53;5017700;28;45554;-74
2022/01/05 07:32:20;;;;;;;;;3.75;3.75;;;;;4.17;67.29;100581.56;5017586;28;45516;-74
2022/01/05 07:34:45;;;;;;;;;2.00;2.00;;;;;4.36;67.65;100604.75;4999385;28;48316;-78
2022/01/05 07:37:10;;;;;;;;;1.75;1.75;;;;;4.36;67.59;100615.16;5017040;28;45407;-76
2022/01/05 07:39:36;;;;;;;;;1.50;1.50;;;;;4.28;67.51;100603.63;5017179;28;45776;-78
2022/01/05 07:42:02;;;;;;;;;5.00;2.00;;;;;4.33;67.13;100612.47;5017121;28;45415;-78
2022/01/05 07:44:28;;;;;;;;;2.00;1.00;;;;;4.35;67.11;100629.06;5016841;28;46309;-79
2022/01/05 07:46:53;;;;;;;;;1.75;1.50;;;;;4.33;67.45;100624.63;5016932;28;45319;-79
2022/01/05 07:49:19;;;;;;;;;1.75;1.25;;;;;4.36;67.67;100620.38;5017158;28;45249;-80
2022/01/05 07:51:44;;;;;;;;;7.00;2.50;;;;;4.43;67.67;100624.97;4999387;28;45286;-76
2022/01/05 07:54:10;;;;;;;;;1.75;1.00;;;;;4.52;67.13;100630.47;5016668;28;46426;-75
2022/01/05 07:56:35;;;;;;;;;1.50;1.50;;;;;4.54;67.14;100626.16;4998885;28;45288;-81
2022/01/05 07:59:01;;;;;;;;;4.50;2.00;;;;;4.51;67.10;100620.88;5017203;28;45221;-79
2022/01/05 08:01:27;;;;;;;;;5.50;4.75;;;;;4.56;67.05;100640.16;5017022;28;45480;-76
2022/01/05 08:03:52;;;;;;;;;6.00;5.00;;;;;4.60;66.88;100640.25;5016878;28;45265;-78
2022/01/05 08:06:18;;;;;;;;;2.00;1.00;;;;;4.55;66.91;100640.97;5017304;28;45178;-77
2022/01/05 08:08:44;;;;;;;;;4.50;3.00;;;;;4.53;66.84;100652.22;5019074;28;45272;-80
2022/01/05 08:11:11;;;;;;;;;4.25;2.50;;;;;4.35;66.59;100618.63;5019858;28;45471;-78
2022/01/05 08:13:36;;;;;;;;;4.50;4.00;;;;;4.52;67.05;100658.25;5018838;28;46142;-79
2022/01/05 08:16:02;;;;;;;;;1.25;1.25;;;;;4.47;67.02;100652.03;5020159;28;45431;-77
2022/01/05 08:18:27;;;;;;;;;2.25;1.75;;;;;4.43;67.03;100647.56;5020699;28;45350;-75
2022/01/05 08:20:54;;;;;;;;;2.75;1.00;;;;;4.44;66.95;100652.81;5018332;28;45359;-77
2022/01/05 08:23:21;;;;;;;;;4.00;4.00;;;;;4.54;66.90;100667.00;5016706;28;47094;-79
2022/01/05 08:25:48;;;;;;;;;2.75;1.25;;;;;4.60;66.99;100666.31;5016443;28;45376;-79
2022/01/05 08:28:15;;;;;;;;;4.00;1.75;;;;;4.57;67.39;100668.00;5016528;28;45210;-78
2022/01/05 08:30:40;;;;;;;;;1.25;1.25;;;;;4.60;66.97;100663.72;5016629;28;45455;-80
2022/01/05 08:33:07;;;;;;;;;1.00;1.00;;;;;4.70;66.67;100679.69;5016164;28;46245;-78
2022/01/05 08:35:34;;;;;;;;;2.00;2.00;;;;;4.73;67.07;100678.88;5016511;28;45353;-76
2022/01/05 08:37:59;;;;;;;;;1.50;1.50;;;;;4.70;66.44;100682.31;5016394;28;45486;-74
2022/01/05 08:40:26;;;;;;;;;4.00;4.00;;;;;4.73;66.34;100685.00;5016601;28;45314;-75
2022/01/05 08:42:54;;;;;;;;;1.25;1.25;;;;;4.73;66.43;100682.38;5016321;28;46296;-76
2022/01/05 08:45:20;;;;;;;;;5.25;1.25;;;;;4.78;66.28;100688.63;5019019;28;45407;-75
2022/01/05 08:47:49;;;;;;;;;1.00;1.00;;;;;4.62;66.12;100655.09;5019684;28;45373;-74
2022/01/05 08:50:16;;;;;;;;;1.00;1.00;;;;;4.89;65.90;100695.91;5019477;28;45266;-73
2022/01/05 08:52:41;;;;;;;;;1.00;1.00;;;;;4.91;65.94;100700.31;5019147;28;46508;-77
2022/01/05 08:55:08;;;;;;;;;6.25;3.50;;;;;4.86;65.52;100681.03;5019365;28;45203;-79
2022/01/05 08:57:33;;;;;;;;;4.25;1.75;;;;;4.96;65.80;100693.50;5019725;28;45248;-77
2022/01/05 08:59:59;;;;;;;;;3.50;1.00;;;;;4.97;66.10;100695.28;5019941;28;45225;-76
2022/01/05 09:02:24;;;;;;;;;2.00;2.00;;;;;5.01;65.84;100685.81;5019395;28;45450;-78
2022/01/05 09:04:52;;;;;;;;;2.00;2.00;;;;;5.04;65.81;100676.34;5019461;28;45435;-74
2022/01/05 09:07:18;;;;;;;;;4.75;3.75;;;;;5.13;65.86;100680.97;5019811;28;45328;-76
2022/01/05 09:09:44;;;;;;;;;5.25;2.50;;;;;5.21;65.27;100695.13;5019451;28;45260;-72
2022/01/05 09:12:10;;;;;;;;;1.25;1.25;;;;;5.27;64.53;100710.94;5019565;28;46304;-74
2022/01/05 09:14:36;;;;;;;;;1.00;0.50;;;;;5.19;64.91;100688.06;5019189;28;45194;-78
2022/01/05 09:17:01;;;;;;;;;1.75;1.75;;;;;5.34;65.24;100712.00;5019481;28;45204;-78
2022/01/05 09:19:28;;;;;;;;;2.00;1.00;;;;;5.44;64.71;100712.28;5019502;28;45478;-75
2022/01/05 09:21:54;;;;;;;;;7.75;6.00;;;;;5.43;64.50;100694.84;5019038;28;46233;-76
2022/01/05 09:24:19;;;;;;;;;3.00;2.00;;;;;5.60;63.91;100724.06;5018965;28;45353;-76
2022/01/05 09:26:45;;;;;;;;;4.75;4.75;;;;;5.69;64.18;100712.97;5019190;28;45418;-79
2022/01/05 09:29:10;;;;;;;;;2.00;2.00;;;;;5.62;63.50;100698.84;5019636;28;45314;-75
2022/01/05 09:31:36;;;;;;;;;1.00;1.00;;;;;5.98;63.59;100708.53;5019115;28;46448;-80
2022/01/05 09:34:01;;;;;;;;;1.50;1.50;;;;;7.93;59.33;100712.75;5018899;28;45432;-77
2022/01/05 09:36:34;;;;;;;;;2.75;2.00;;;;;10.66;53.03;100720.50;5019209;28;45379;-77
2022/01/05 09:41:56;;;;;;;;;5.50;2.25;;;;;14.43;42.90;100696.38;5019101;28;45916;-79
2022/01/05 09:44:26;;;;;;;;;8.00;4.50;;;;;16.11;39.93;100730.69;5018571;28;45365;-77
2022/01/05 09:47:10;;;;;;;;;3.00;2.00;;;;;17.15;38.24;100736.84;5018990;28;45317;-77
2022/01/05 09:49:48;;;;;;;;;6.00;6.00;;;;;17.24;36.50;100737.56;5018310;28;45478;-76
2022/01/05 09:52:14;;;;;;;;;3.00;3.00;;;;;18.44;33.99;100746.47;5018113;28;46195;-80
2022/01/05 09:54:43;;;;;;;;;3.50;2.50;;;;;18.81;34.44;100742.88;5000141;28;45494;-80
2022/01/05 09:57:10;;;;;;;;;3.00;3.00;;;;;18.59;33.71;100729.16;5018724;28;45435;-81
2022/01/05 09:59:37;;;;;;;;;5.50;5.50;;;;;18.72;33.62;100755.53;5018688;28;45463;-81
2022/01/05 10:02:05;;;;;;;;;3.00;3.00;;;;;19.14;32.60;100754.44;5018288;28;45618;-78
2022/01/05 10:04:30;;;;;;;;;4.25;3.00;;;;;17.96;34.52;100760.00;5000312;28;45812;-81
2022/01/05 10:06:56;;;;;;;;;5.00;3.25;;;;;17.44;35.51;100745.13;5018627;28;45316;-76
2022/01/05 10:09:22;;;;;;;;;7.00;5.00;;;;;19.21;33.00;100770.25;5018457;28;45582;-78
2022/01/05 10:11:48;;;;;;;;;3.00;3.00;;;;;20.34;30.99;100747.28;5018404;28;45726;-79
2022/01/05 10:14:13;;;;;;;;;3.00;3.00;;;;;21.15;30.22;100761.47;5018046;28;45437;-77
2022/01/05 10:16:40;;;;;;;;;4.33;3.00;;;;;21.55;28.64;100768.94;5018542;28;45323;-77
2022/01/05 10:19:08;;;;;;;;;4.00;4.00;;;;;20.16;31.38;100767.47;5018263;28;45174;-75
2022/01/05 10:21:35;;;;;;;;;4.33;3.67;;;;;18.10;33.38;100791.69;5017921;28;47418;-79
2022/01/05 10:24:02;;;;;;;;;4.00;2.00;;;;;17.89;36.05;100771.75;5017766;28;45471;-77
2022/01/05 10:26:36;;;;;;;;;5.67;3.33;;;;;18.52;32.74;100785.38;5018154;28;45291;-77
2022/01/05 10:29:05;;;;;;;;;3.00;3.00;;;;;16.62;34.97;100795.41;5018152;28;45387;-79
2022/01/05 10:31:33;;;;;;;;;3.67;3.67;;;;;16.93;35.29;100784.28;5018029;28;47134;-78
2022/01/05 10:34:13;;;;;;;;;5.33;4.33;;;;;16.28;36.14;100800.38;5018166;28;45230;-77
2022/01/05 10:36:47;;;;;;;;;3.00;3.00;;;;;15.11;37.76;100789.44;5018146;28;45434;-78
2022/01/05 10:39:13;;;;;;;;;6.50;4.50;;;;;15.61;37.73;100817.22;5018080;28;45504;-75
2022/01/05 10:41:39;;;;;;;;;6.50;4.75;;;;;14.91;38.32;100788.78;5017882;28;46421;-77
2022/01/05 10:44:13;;;;;;;;;3.50;2.00;;;;;14.08;40.97;100813.22;5000218;28;45382;-79
2022/01/05 10:46:43;;;;;;;;;3.75;3.75;;;;;12.92;42.52;100804.75;5017889;28;45401;-73
2022/01/05 10:49:12;;;;;;;;;3.00;3.00;;;;;12.46;42.95;100780.97;5018210;28;45228;-78
2022/01/05 10:51:37;;;;;;;;;2.00;2.00;;;;;12.96;42.60;100830.34;5017550;28;46328;-80
2022/01/05 10:54:29;;;;;;;;;10.25;5.00;;;;;14.70;39.93;100808.38;5017400;28;45551;-76
2022/01/05 10:57:07;;;;;;;;;5.50;5.00;;;;;15.06;38.67;100926.56;5014265;28;45409;-80
2022/01/05 10:59:38;;;;;;;;;3.75;3.50;;;;;16.76;36.50;100921.16;5000044;28;45369;-74
2022/01/05 11:02:30;;;;;;;;;4.25;4.25;;;;;18.22;33.45;100941.63;5017318;28;46482;-76
2022/01/05 11:05:12;;;;;;;;;6.75;6.25;;;;;17.89;33.19;100895.22;5017379;28;45420;-78
2022/01/05 11:07:39;;;;;;;;;1.25;1.25;;;;;17.78;33.93;100809.28;5016720;28;45384;-75
2022/01/05 11:10:11;;;;;;;;;3.75;2.75;;;;;16.88;35.07;100796.78;5017727;28;45537;-78
2022/01/05 11:12:40;;;;;;;;;2.67;2.67;;;;;15.77;36.49;100804.66;4999401;28;46627;-76
2022/01/05 11:15:30;;;;;;;;;2.00;2.00;;;;;14.81;37.91;100811.84;5017322;28;45395;-80
2022/01/05 11:18:15;;;;;;;;;3.00;3.00;;;;;14.29;40.49;100808.69;5017431;28;45319;-79
2022/01/05 11:20:51;;;;;;;;;7.25;4.50;;;;;13.86;41.12;100795.66;5017604;28;45344;-80
2022/01/05 11:23:18;;;;;;;;;5.50;2.00;;;;;13.52;40.80;100797.63;4999273;28;48155;-78
2022/01/05 11:25:45;;;;;;;;;3.00;3.00;;;;;13.48;42.26;100809.94;5017015;28;45395;-80
2022/01/05 11:28:11;;;;;;;;;5.25;3.75;;;;;13.21;41.14;100802.09;5017577;28;45262;-74
2022/01/05 11:30:38;;;;;;;;;2.00;2.00;;;;;12.94;42.15;100797.72;5017753;28;45213;-76